sensor_id;sensor_type;location;lat;lon;timestamp;P1;durP1;ratioP1;P2;durP2;ratioP2
80891;SDS011;70343;51.530;5.050;2023-10-19T00:00:45;25.98;;;14.70;;
80891;SDS011;70343;51.530;5.050;2023-10-19T00:05:39;24.05;;;13.60;;
80891;SDS011;70343;51.530;5.050;2023-10-19T00:08:07;24.90;;;14.00;;
80891;SDS011;70343;51.530;5.050;2023-10-19T00:10:39;22.10;;;14.38;;
80891;SDS011;70343;51.530;5.050;2023-10-19T00:13:08;26.67;;;16.10;;
80891;SDS011;70343;51.530;5.050;2023-10-19T00:15:37;23.17;;;13.82;;
80891;SDS011;70343;51.530;5.050;2023-10-19T00:18:19;23.90;;;13.18;;
80891;SDS011;70343;51.530;5.050;2023-10-19T00:20:47;20.83;;;12.93;;
80891;SDS011;70343;51.530;5.050;2023-10-19T00:23:23;23.60;;;12.82;;
80891;SDS011;70343;51.530;5.050;2023-10-19T00:26:00;30.63;;;14.27;;
80891;SDS011;70343;51.530;5.050;2023-10-19T00:28:34;21.25;;;13.48;;
80891;SDS011;70343;51.530;5.050;2023-10-19T00:31:04;24.92;;;13.07;;
80891;SDS011;70343;51.530;5.050;2023-10-19T00:33:34;21.55;;;12.75;;
80891;SDS011;70343;51.530;5.050;2023-10-19T00:36:04;24.48;;;12.70;;
80891;SDS011;70343;51.530;5.050;2023-10-19T00:38:34;21.17;;;11.88;;
80891;SDS011;70343;51.530;5.050;2023-10-19T00:41:03;22.65;;;11.73;;
80891;SDS011;70343;51.530;5.050;2023-10-19T00:43:34;23.38;;;12.50;;
80891;SDS011;70343;51.530;5.050;2023-10-19T00:46:02;26.00;;;11.30;;
80891;SDS011;70343;51.530;5.050;2023-10-19T00:48:56;18.23;;;11.02;;
80891;SDS011;70343;51.530;5.050;2023-10-19T00:51:26;18.00;;;10.23;;
80891;SDS011;70343;51.530;5.050;2023-10-19T00:56:47;19.65;;;9.30;;
80891;SDS011;70343;51.530;5.050;2023-10-19T00:59:14;14.75;;;7.97;;
80891;SDS011;70343;51.530;5.050;2023-10-19T01:01:48;15.88;;;8.20;;
80891;SDS011;70343;51.530;5.050;2023-10-19T01:04:18;13.73;;;7.57;;
80891;SDS011;70343;51.530;5.050;2023-10-19T01:06:49;14.52;;;7.85;;
80891;SDS011;70343;51.530;5.050;2023-10-19T01:09:34;10.13;;;5.75;;
80891;SDS011;70343;51.530;5.050;2023-10-19T01:12:01;9.02;;;5.82;;
80891;SDS011;70343;51.530;5.050;2023-10-19T01:17:31;8.23;;;5.80;;
80891;SDS011;70343;51.530;5.050;2023-10-19T01:19:59;11.45;;;4.97;;
80891;SDS011;70343;51.530;5.050;2023-10-19T01:22:25;7.97;;;4.53;;
80891;SDS011;70343;51.530;5.050;2023-10-19T01:24:54;11.30;;;4.75;;
80891;SDS011;70343;51.530;5.050;2023-10-19T01:27:20;8.00;;;4.20;;
80891;SDS011;70343;51.530;5.050;2023-10-19T01:29:46;11.27;;;4.28;;
80891;SDS011;70343;51.530;5.050;2023-10-19T01:32:12;9.27;;;4.00;;
80891;SDS011;70343;51.530;5.050;2023-10-19T01:34:40;6.80;;;3.28;;
80891;SDS011;70343;51.530;5.050;2023-10-19T01:37:06;7.18;;;3.70;;
80891;SDS011;70343;51.530;5.050;2023-10-19T01:39:31;7.15;;;3.10;;
80891;SDS011;70343;51.530;5.050;2023-10-19T01:42:00;5.18;;;2.70;;
80891;SDS011;70343;51.530;5.050;2023-10-19T01:44:26;5.55;;;2.22;;
80891;SDS011;70343;51.530;5.050;2023-10-19T01:46:52;6.07;;;2.17;;
80891;SDS011;70343;51.530;5.050;2023-10-19T01:49:18;4.97;;;2.17;;
80891;SDS011;70343;51.530;5.050;2023-10-19T01:51:51;3.03;;;1.92;;
80891;SDS011;70343;51.530;5.050;2023-10-19T01:54:17;5.68;;;1.90;;
80891;SDS011;70343;51.530;5.050;2023-10-19T01:56:48;7.50;;;2.25;;
80891;SDS011;70343;51.530;5.050;2023-10-19T01:59:16;1.98;;;1.60;;
80891;SDS011;70343;51.530;5.050;2023-10-19T02:01:42;5.57;;;2.42;;
80891;SDS011;70343;51.530;5.050;2023-10-19T02:04:10;3.55;;;1.40;;
80891;SDS011;70343;51.530;5.050;2023-10-19T02:06:38;4.05;;;1.55;;
80891;SDS011;70343;51.530;5.050;2023-10-19T02:09:12;5.78;;;1.75;;
80891;SDS011;70343;51.530;5.050;2023-10-19T02:11:48;4.40;;;1.67;;
80891;SDS011;70343;51.530;5.050;2023-10-19T02:14:18;8.38;;;1.80;;
80891;SDS011;70343;51.530;5.050;2023-10-19T02:16:52;5.05;;;1.40;;
80891;SDS011;70343;51.530;5.050;2023-10-19T02:19:21;6.13;;;1.38;;
80891;SDS011;70343;51.530;5.050;2023-10-19T02:21:49;5.05;;;1.42;;
80891;SDS011;70343;51.530;5.050;2023-10-19T02:24:15;7.95;;;1.55;;
80891;SDS011;70343;51.530;5.050;2023-10-19T02:26:41;4.90;;;1.48;;
80891;SDS011;70343;51.530;5.050;2023-10-19T02:29:08;3.63;;;1.20;;
80891;SDS011;70343;51.530;5.050;2023-10-19T02:31:37;4.63;;;1.70;;
80891;SDS011;70343;51.530;5.050;2023-10-19T02:34:05;5.07;;;1.20;;
80891;SDS011;70343;51.530;5.050;2023-10-19T02:36:40;5.05;;;1.23;;
80891;SDS011;70343;51.530;5.050;2023-10-19T02:39:08;5.20;;;1.90;;
80891;SDS011;70343;51.530;5.050;2023-10-19T02:41:38;1.90;;;1.13;;
80891;SDS011;70343;51.530;5.050;2023-10-19T02:44:15;4.22;;;1.35;;
80891;SDS011;70343;51.530;5.050;2023-10-19T02:46:43;5.60;;;1.35;;
80891;SDS011;70343;51.530;5.050;2023-10-19T02:49:09;1.77;;;1.10;;
80891;SDS011;70343;51.530;5.050;2023-10-19T02:51:40;5.47;;;1.23;;
80891;SDS011;70343;51.530;5.050;2023-10-19T02:54:09;5.28;;;1.30;;
80891;SDS011;70343;51.530;5.050;2023-10-19T02:56:43;3.08;;;1.00;;
80891;SDS011;70343;51.530;5.050;2023-10-19T02:59:13;6.00;;;1.40;;
80891;SDS011;70343;51.530;5.050;2023-10-19T03:01:41;7.05;;;1.40;;
80891;SDS011;70343;51.530;5.050;2023-10-19T03:04:10;4.25;;;1.13;;
80891;SDS011;70343;51.530;5.050;2023-10-19T03:06:37;2.92;;;0.80;;
80891;SDS011;70343;51.530;5.050;2023-10-19T03:09:05;5.40;;;1.10;;
80891;SDS011;70343;51.530;5.050;2023-10-19T03:11:50;6.90;;;1.85;;
80891;SDS011;70343;51.530;5.050;2023-10-19T03:14:20;4.88;;;0.90;;
80891;SDS011;70343;51.530;5.050;2023-10-19T03:16:50;4.30;;;1.15;;
80891;SDS011;70343;51.530;5.050;2023-10-19T03:19:16;4.18;;;0.90;;
80891;SDS011;70343;51.530;5.050;2023-10-19T03:21:41;3.47;;;1.08;;
80891;SDS011;70343;51.530;5.050;2023-10-19T03:24:09;5.18;;;1.48;;
80891;SDS011;70343;51.530;5.050;2023-10-19T03:26:51;2.40;;;0.80;;
80891;SDS011;70343;51.530;5.050;2023-10-19T03:29:19;3.13;;;1.13;;
80891;SDS011;70343;51.530;5.050;2023-10-19T03:31:55;4.82;;;1.00;;
80891;SDS011;70343;51.530;5.050;2023-10-19T03:34:21;2.83;;;0.98;;
80891;SDS011;70343;51.530;5.050;2023-10-19T03:36:49;4.28;;;1.15;;
80891;SDS011;70343;51.530;5.050;2023-10-19T03:39:16;3.78;;;0.82;;
80891;SDS011;70343;51.530;5.050;2023-10-19T03:41:45;3.53;;;1.00;;
80891;SDS011;70343;51.530;5.050;2023-10-19T03:44:11;5.93;;;1.00;;
80891;SDS011;70343;51.530;5.050;2023-10-19T03:46:46;5.13;;;1.00;;
80891;SDS011;70343;51.530;5.050;2023-10-19T03:49:29;5.65;;;1.10;;
80891;SDS011;70343;51.530;5.050;2023-10-19T03:52:04;4.15;;;1.05;;
80891;SDS011;70343;51.530;5.050;2023-10-19T03:54:30;3.85;;;1.05;;
80891;SDS011;70343;51.530;5.050;2023-10-19T03:56:58;4.68;;;1.40;;
80891;SDS011;70343;51.530;5.050;2023-10-19T03:59:28;5.18;;;0.90;;
80891;SDS011;70343;51.530;5.050;2023-10-19T04:01:59;3.17;;;1.00;;
80891;SDS011;70343;51.530;5.050;2023-10-19T04:04:26;2.70;;;0.80;;
80891;SDS011;70343;51.530;5.050;2023-10-19T04:06:54;2.80;;;0.95;;
80891;SDS011;70343;51.530;5.050;2023-10-19T04:09:23;4.55;;;1.38;;
80891;SDS011;70343;51.530;5.050;2023-10-19T04:11:55;7.13;;;1.60;;
80891;SDS011;70343;51.530;5.050;2023-10-19T04:14:21;5.55;;;1.50;;
80891;SDS011;70343;51.530;5.050;2023-10-19T04:16:46;4.65;;;1.45;;
80891;SDS011;70343;51.530;5.050;2023-10-19T04:19:14;5.45;;;1.35;;
80891;SDS011;70343;51.530;5.050;2023-10-19T04:21:41;5.22;;;1.88;;
80891;SDS011;70343;51.530;5.050;2023-10-19T04:24:12;3.45;;;1.40;;
80891;SDS011;70343;51.530;5.050;2023-10-19T04:26:38;7.70;;;1.63;;
80891;SDS011;70343;51.530;5.050;2023-10-19T04:29:04;5.28;;;1.27;;
80891;SDS011;70343;51.530;5.050;2023-10-19T04:31:38;7.93;;;1.92;;
80891;SDS011;70343;51.530;5.050;2023-10-19T04:34:24;6.88;;;1.80;;
80891;SDS011;70343;51.530;5.050;2023-10-19T04:36:50;7.68;;;1.77;;
80891;SDS011;70343;51.530;5.050;2023-10-19T04:39:16;3.80;;;1.73;;
80891;SDS011;70343;51.530;5.050;2023-10-19T04:41:45;6.68;;;2.00;;
80891;SDS011;70343;51.530;5.050;2023-10-19T04:44:11;5.05;;;1.70;;
80891;SDS011;70343;51.530;5.050;2023-10-19T04:46:37;5.07;;;1.67;;
80891;SDS011;70343;51.530;5.050;2023-10-19T04:49:03;5.13;;;1.90;;
80891;SDS011;70343;51.530;5.050;2023-10-19T04:51:29;7.07;;;2.00;;
80891;SDS011;70343;51.530;5.050;2023-10-19T04:53:55;8.25;;;1.85;;
80891;SDS011;70343;51.530;5.050;2023-10-19T04:56:20;3.60;;;1.65;;
80891;SDS011;70343;51.530;5.050;2023-10-19T04:58:47;6.88;;;1.60;;
80891;SDS011;70343;51.530;5.050;2023-10-19T05:01:13;6.32;;;1.48;;
80891;SDS011;70343;51.530;5.050;2023-10-19T05:03:40;6.18;;;2.25;;
80891;SDS011;70343;51.530;5.050;2023-10-19T05:06:06;8.18;;;2.28;;
80891;SDS011;70343;51.530;5.050;2023-10-19T05:08:31;6.30;;;1.83;;
80891;SDS011;70343;51.530;5.050;2023-10-19T05:10:58;5.90;;;1.42;;
80891;SDS011;70343;51.530;5.050;2023-10-19T05:13:24;6.95;;;1.88;;
80891;SDS011;70343;51.530;5.050;2023-10-19T05:15:55;6.30;;;1.60;;
80891;SDS011;70343;51.530;5.050;2023-10-19T05:18:21;4.40;;;1.80;;
80891;SDS011;70343;51.530;5.050;2023-10-19T05:20:48;5.25;;;1.80;;
80891;SDS011;70343;51.530;5.050;2023-10-19T05:23:14;5.65;;;1.60;;
80891;SDS011;70343;51.530;5.050;2023-10-19T05:25:40;2.70;;;1.40;;
80891;SDS011;70343;51.530;5.050;2023-10-19T05:28:05;6.43;;;1.98;;
80891;SDS011;70343;51.530;5.050;2023-10-19T05:30:32;5.85;;;1.65;;
80891;SDS011;70343;51.530;5.050;2023-10-19T05:32:58;7.60;;;1.85;;
80891;SDS011;70343;51.530;5.050;2023-10-19T05:35:25;9.07;;;2.03;;
80891;SDS011;70343;51.530;5.050;2023-10-19T05:37:51;7.60;;;1.73;;
80891;SDS011;70343;51.530;5.050;2023-10-19T05:40:18;6.35;;;2.20;;
80891;SDS011;70343;51.530;5.050;2023-10-19T05:42:44;7.43;;;2.70;;
80891;SDS011;70343;51.530;5.050;2023-10-19T05:45:11;4.78;;;1.70;;
80891;SDS011;70343;51.530;5.050;2023-10-19T05:47:38;9.00;;;2.30;;
80891;SDS011;70343;51.530;5.050;2023-10-19T05:50:04;9.00;;;2.30;;
80891;SDS011;70343;51.530;5.050;2023-10-19T05:52:30;9.50;;;2.00;;
80891;SDS011;70343;51.530;5.050;2023-10-19T05:54:55;8.73;;;2.10;;
80891;SDS011;70343;51.530;5.050;2023-10-19T05:57:22;8.68;;;2.65;;
80891;SDS011;70343;51.530;5.050;2023-10-19T05:59:49;8.13;;;2.55;;
80891;SDS011;70343;51.530;5.050;2023-10-19T06:02:14;5.38;;;1.92;;
80891;SDS011;70343;51.530;5.050;2023-10-19T06:04:40;12.80;;;2.00;;
80891;SDS011;70343;51.530;5.050;2023-10-19T06:07:06;6.22;;;2.30;;
80891;SDS011;70343;51.530;5.050;2023-10-19T06:09:31;7.20;;;1.95;;
80891;SDS011;70343;51.530;5.050;2023-10-19T06:11:57;4.80;;;2.15;;
80891;SDS011;70343;51.530;5.050;2023-10-19T06:14:23;7.60;;;2.28;;
80891;SDS011;70343;51.530;5.050;2023-10-19T06:16:48;9.73;;;2.40;;
80891;SDS011;70343;51.530;5.050;2023-10-19T06:19:14;7.57;;;2.00;;
80891;SDS011;70343;51.530;5.050;2023-10-19T06:21:41;5.70;;;1.98;;
80891;SDS011;70343;51.530;5.050;2023-10-19T06:24:06;12.27;;;2.25;;
80891;SDS011;70343;51.530;5.050;2023-10-19T06:26:32;9.00;;;2.45;;
80891;SDS011;70343;51.530;5.050;2023-10-19T06:28:58;7.97;;;1.88;;
80891;SDS011;70343;51.530;5.050;2023-10-19T06:31:24;8.02;;;1.73;;
80891;SDS011;70343;51.530;5.050;2023-10-19T06:33:51;8.20;;;2.20;;
80891;SDS011;70343;51.530;5.050;2023-10-19T06:36:17;6.53;;;2.00;;
80891;SDS011;70343;51.530;5.050;2023-10-19T06:38:44;7.88;;;2.17;;
80891;SDS011;70343;51.530;5.050;2023-10-19T06:41:11;7.50;;;2.95;;
80891;SDS011;70343;51.530;5.050;2023-10-19T06:43:39;12.32;;;2.55;;
80891;SDS011;70343;51.530;5.050;2023-10-19T06:46:05;10.82;;;2.55;;
80891;SDS011;70343;51.530;5.050;2023-10-19T06:48:32;9.45;;;2.50;;
80891;SDS011;70343;51.530;5.050;2023-10-19T06:50:58;5.15;;;2.80;;
80891;SDS011;70343;51.530;5.050;2023-10-19T06:53:25;8.70;;;2.28;;
80891;SDS011;70343;51.530;5.050;2023-10-19T06:55:51;9.38;;;2.58;;
80891;SDS011;70343;51.530;5.050;2023-10-19T06:58:16;7.85;;;2.67;;
80891;SDS011;70343;51.530;5.050;2023-10-19T07:00:45;5.45;;;2.55;;
80891;SDS011;70343;51.530;5.050;2023-10-19T07:03:17;5.18;;;2.00;;
80891;SDS011;70343;51.530;5.050;2023-10-19T07:05:43;9.48;;;2.22;;
80891;SDS011;70343;51.530;5.050;2023-10-19T07:08:08;4.47;;;2.35;;
80891;SDS011;70343;51.530;5.050;2023-10-19T07:10:35;6.32;;;1.80;;
80891;SDS011;70343;51.530;5.050;2023-10-19T07:13:00;7.13;;;1.90;;
80891;SDS011;70343;51.530;5.050;2023-10-19T07:15:27;9.80;;;2.22;;
80891;SDS011;70343;51.530;5.050;2023-10-19T07:17:54;10.00;;;2.10;;
80891;SDS011;70343;51.530;5.050;2023-10-19T07:20:21;7.28;;;2.65;;
80891;SDS011;70343;51.530;5.050;2023-10-19T07:22:50;5.68;;;2.10;;
80891;SDS011;70343;51.530;5.050;2023-10-19T07:25:17;11.18;;;2.38;;
80891;SDS011;70343;51.530;5.050;2023-10-19T07:27:46;5.28;;;1.90;;
80891;SDS011;70343;51.530;5.050;2023-10-19T07:30:13;9.82;;;2.20;;
80891;SDS011;70343;51.530;5.050;2023-10-19T07:32:40;11.85;;;2.55;;
80891;SDS011;70343;51.530;5.050;2023-10-19T07:35:06;9.48;;;1.90;;
80891;SDS011;70343;51.530;5.050;2023-10-19T07:37:32;9.80;;;2.72;;
80891;SDS011;70343;51.530;5.050;2023-10-19T07:39:57;10.10;;;2.22;;
80891;SDS011;70343;51.530;5.050;2023-10-19T07:42:23;8.88;;;2.25;;
80891;SDS011;70343;51.530;5.050;2023-10-19T07:44:50;11.77;;;2.30;;
80891;SDS011;70343;51.530;5.050;2023-10-19T07:47:16;10.63;;;2.20;;
80891;SDS011;70343;51.530;5.050;2023-10-19T07:49:42;7.65;;;2.20;;
80891;SDS011;70343;51.530;5.050;2023-10-19T07:52:08;8.27;;;2.85;;
80891;SDS011;70343;51.530;5.050;2023-10-19T07:54:36;8.77;;;2.38;;
80891;SDS011;70343;51.530;5.050;2023-10-19T07:57:03;7.78;;;2.25;;
80891;SDS011;70343;51.530;5.050;2023-10-19T07:59:31;8.77;;;2.83;;
80891;SDS011;70343;51.530;5.050;2023-10-19T08:01:58;6.55;;;2.33;;
80891;SDS011;70343;51.530;5.050;2023-10-19T08:04:27;5.85;;;2.40;;
80891;SDS011;70343;51.530;5.050;2023-10-19T08:06:53;10.90;;;2.97;;
80891;SDS011;70343;51.530;5.050;2023-10-19T08:09:20;6.53;;;2.58;;
80891;SDS011;70343;51.530;5.050;2023-10-19T08:11:51;7.65;;;2.45;;
80891;SDS011;70343;51.530;5.050;2023-10-19T08:14:25;6.53;;;2.50;;
80891;SDS011;70343;51.530;5.050;2023-10-19T08:16:51;14.15;;;2.25;;
80891;SDS011;70343;51.530;5.050;2023-10-19T08:19:17;11.43;;;2.00;;
80891;SDS011;70343;51.530;5.050;2023-10-19T08:21:43;10.10;;;2.10;;
80891;SDS011;70343;51.530;5.050;2023-10-19T08:24:09;5.82;;;1.83;;
80891;SDS011;70343;51.530;5.050;2023-10-19T08:26:39;6.35;;;2.00;;
80891;SDS011;70343;51.530;5.050;2023-10-19T08:29:07;7.15;;;2.00;;
80891;SDS011;70343;51.530;5.050;2023-10-19T08:31:39;8.13;;;2.20;;
80891;SDS011;70343;51.530;5.050;2023-10-19T08:34:08;6.13;;;2.15;;
80891;SDS011;70343;51.530;5.050;2023-10-19T08:36:37;8.10;;;2.35;;
80891;SDS011;70343;51.530;5.050;2023-10-19T08:39:06;7.22;;;2.17;;
80891;SDS011;70343;51.530;5.050;2023-10-19T08:41:34;7.88;;;2.03;;
80891;SDS011;70343;51.530;5.050;2023-10-19T08:44:00;9.73;;;1.70;;
80891;SDS011;70343;51.530;5.050;2023-10-19T08:46:27;6.57;;;1.70;;
80891;SDS011;70343;51.530;5.050;2023-10-19T08:48:54;6.45;;;1.55;;
80891;SDS011;70343;51.530;5.050;2023-10-19T08:51:24;5.47;;;1.38;;
80891;SDS011;70343;51.530;5.050;2023-10-19T08:53:52;4.63;;;1.50;;
80891;SDS011;70343;51.530;5.050;2023-10-19T08:56:19;8.02;;;1.55;;
80891;SDS011;70343;51.530;5.050;2023-10-19T08:58:48;8.10;;;1.73;;
80891;SDS011;70343;51.530;5.050;2023-10-19T09:01:17;6.60;;;1.80;;
80891;SDS011;70343;51.530;5.050;2023-10-19T09:03:45;6.40;;;1.63;;
80891;SDS011;70343;51.530;5.050;2023-10-19T09:06:11;10.82;;;2.53;;
80891;SDS011;70343;51.530;5.050;2023-10-19T09:08:37;8.55;;;1.50;;
80891;SDS011;70343;51.530;5.050;2023-10-19T09:11:08;8.18;;;2.47;;
80891;SDS011;70343;51.530;5.050;2023-10-19T09:13:43;9.85;;;1.75;;
80891;SDS011;70343;51.530;5.050;2023-10-19T09:16:13;8.15;;;1.40;;
80891;SDS011;70343;51.530;5.050;2023-10-19T09:18:43;11.80;;;1.63;;
80891;SDS011;70343;51.530;5.050;2023-10-19T09:21:10;9.57;;;1.58;;
80891;SDS011;70343;51.530;5.050;2023-10-19T09:23:46;7.72;;;1.67;;
80891;SDS011;70343;51.530;5.050;2023-10-19T09:26:12;12.45;;;1.80;;
80891;SDS011;70343;51.530;5.050;2023-10-19T09:28:38;5.93;;;1.35;;
80891;SDS011;70343;51.530;5.050;2023-10-19T09:31:04;7.43;;;1.63;;
80891;SDS011;70343;51.530;5.050;2023-10-19T09:33:34;10.48;;;1.95;;
80891;SDS011;70343;51.530;5.050;2023-10-19T09:38:38;7.03;;;1.58;;
80891;SDS011;70343;51.530;5.050;2023-10-19T09:41:12;9.13;;;1.60;;
80891;SDS011;70343;51.530;5.050;2023-10-19T09:43:44;5.90;;;1.52;;
80891;SDS011;70343;51.530;5.050;2023-10-19T09:46:21;9.43;;;1.75;;
80891;SDS011;70343;51.530;5.050;2023-10-19T09:48:49;5.93;;;1.35;;
80891;SDS011;70343;51.530;5.050;2023-10-19T09:51:15;13.23;;;1.95;;
80891;SDS011;70343;51.530;5.050;2023-10-19T09:53:48;5.63;;;1.63;;
80891;SDS011;70343;51.530;5.050;2023-10-19T09:56:22;6.22;;;1.30;;
80891;SDS011;70343;51.530;5.050;2023-10-19T09:58:54;6.32;;;1.60;;
80891;SDS011;70343;51.530;5.050;2023-10-19T10:01:24;10.02;;;1.77;;
80891;SDS011;70343;51.530;5.050;2023-10-19T10:03:51;7.38;;;1.70;;
80891;SDS011;70343;51.530;5.050;2023-10-19T10:06:27;11.32;;;2.38;;
80891;SDS011;70343;51.530;5.050;2023-10-19T10:08:55;12.40;;;2.58;;
80891;SDS011;70343;51.530;5.050;2023-10-19T10:11:23;9.95;;;1.83;;
80891;SDS011;70343;51.530;5.050;2023-10-19T10:13:52;10.40;;;1.85;;
80891;SDS011;70343;51.530;5.050;2023-10-19T10:16:18;8.77;;;1.50;;
80891;SDS011;70343;51.530;5.050;2023-10-19T10:18:47;7.78;;;1.67;;
80891;SDS011;70343;51.530;5.050;2023-10-19T10:21:19;6.57;;;1.48;;
80891;SDS011;70343;51.530;5.050;2023-10-19T10:23:50;7.70;;;1.55;;
80891;SDS011;70343;51.530;5.050;2023-10-19T10:26:31;7.43;;;2.40;;
80891;SDS011;70343;51.530;5.050;2023-10-19T10:29:22;7.90;;;1.40;;
80891;SDS011;70343;51.530;5.050;2023-10-19T10:31:49;5.90;;;1.35;;
80891;SDS011;70343;51.530;5.050;2023-10-19T10:37:11;7.15;;;2.05;;
80891;SDS011;70343;51.530;5.050;2023-10-19T10:39:39;8.98;;;1.60;;
80891;SDS011;70343;51.530;5.050;2023-10-19T10:42:09;11.20;;;1.77;;
80891;SDS011;70343;51.530;5.050;2023-10-19T10:44:43;11.25;;;2.42;;
80891;SDS011;70343;51.530;5.050;2023-10-19T10:47:11;9.77;;;1.75;;
80891;SDS011;70343;51.530;5.050;2023-10-19T10:49:48;5.70;;;1.95;;
80891;SDS011;70343;51.530;5.050;2023-10-19T10:52:32;12.00;;;1.55;;
80891;SDS011;70343;51.530;5.050;2023-10-19T10:55:12;7.15;;;1.80;;
80891;SDS011;70343;51.530;5.050;2023-10-19T10:57:39;9.05;;;1.60;;
80891;SDS011;70343;51.530;5.050;2023-10-19T11:00:13;5.97;;;1.65;;
80891;SDS011;70343;51.530;5.050;2023-10-19T11:02:58;8.65;;;1.98;;
80891;SDS011;70343;51.530;5.050;2023-10-19T11:05:29;5.40;;;1.80;;
80891;SDS011;70343;51.530;5.050;2023-10-19T11:08:05;9.85;;;1.95;;
80891;SDS011;70343;51.530;5.050;2023-10-19T11:10:31;7.55;;;1.80;;
80891;SDS011;70343;51.530;5.050;2023-10-19T11:13:03;9.27;;;2.15;;
80891;SDS011;70343;51.530;5.050;2023-10-19T11:15:33;11.27;;;1.83;;
80891;SDS011;70343;51.530;5.050;2023-10-19T11:17:59;5.90;;;1.35;;
80891;SDS011;70343;51.530;5.050;2023-10-19T11:20:25;5.93;;;1.38;;
80891;SDS011;70343;51.530;5.050;2023-10-19T11:22:53;9.57;;;1.90;;
80891;SDS011;70343;51.530;5.050;2023-10-19T11:27:47;6.13;;;1.58;;
80891;SDS011;70343;51.530;5.050;2023-10-19T11:30:13;6.32;;;1.80;;
80891;SDS011;70343;51.530;5.050;2023-10-19T11:32:54;9.23;;;1.80;;
80891;SDS011;70343;51.530;5.050;2023-10-19T11:35:28;6.53;;;1.77;;
80891;SDS011;70343;51.530;5.050;2023-10-19T11:37:56;8.80;;;1.80;;
80891;SDS011;70343;51.530;5.050;2023-10-19T11:40:24;6.65;;;2.00;;
80891;SDS011;70343;51.530;5.050;2023-10-19T11:42:51;9.40;;;1.85;;
80891;SDS011;70343;51.530;5.050;2023-10-19T11:45:18;9.73;;;1.90;;
80891;SDS011;70343;51.530;5.050;2023-10-19T11:47:44;14.38;;;2.20;;
80891;SDS011;70343;51.530;5.050;2023-10-19T11:50:11;8.38;;;2.10;;
80891;SDS011;70343;51.530;5.050;2023-10-19T11:52:43;9.48;;;2.05;;
80891;SDS011;70343;51.530;5.050;2023-10-19T11:55:11;14.38;;;8.30;;
80891;SDS011;70343;51.530;5.050;2023-10-19T11:57:39;7.57;;;2.20;;
80891;SDS011;70343;51.530;5.050;2023-10-19T12:00:05;11.07;;;2.30;;
80891;SDS011;70343;51.530;5.050;2023-10-19T12:02:39;9.95;;;2.20;;
80891;SDS011;70343;51.530;5.050;2023-10-19T12:05:08;12.70;;;2.50;;
80891;SDS011;70343;51.530;5.050;2023-10-19T12:07:37;6.30;;;1.90;;
80891;SDS011;70343;51.530;5.050;2023-10-19T12:10:06;9.38;;;2.10;;
80891;SDS011;70343;51.530;5.050;2023-10-19T12:12:33;5.78;;;1.58;;
80891;SDS011;70343;51.530;5.050;2023-10-19T12:14:59;4.30;;;1.83;;
80891;SDS011;70343;51.530;5.050;2023-10-19T12:17:28;8.10;;;2.10;;
80891;SDS011;70343;51.530;5.050;2023-10-19T12:19:55;8.95;;;1.60;;
80891;SDS011;70343;51.530;5.050;2023-10-19T12:22:21;8.65;;;1.88;;
80891;SDS011;70343;51.530;5.050;2023-10-19T12:24:47;8.90;;;1.45;;
80891;SDS011;70343;51.530;5.050;2023-10-19T12:27:13;8.60;;;1.70;;
80891;SDS011;70343;51.530;5.050;2023-10-19T12:29:39;7.43;;;1.63;;
80891;SDS011;70343;51.530;5.050;2023-10-19T12:32:05;12.57;;;2.22;;
80891;SDS011;70343;51.530;5.050;2023-10-19T12:34:31;9.23;;;2.42;;
80891;SDS011;70343;51.530;5.050;2023-10-19T12:36:56;7.47;;;1.55;;
80891;SDS011;70343;51.530;5.050;2023-10-19T12:39:27;3.17;;;1.60;;
80891;SDS011;70343;51.530;5.050;2023-10-19T12:42:08;10.00;;;2.55;;
80891;SDS011;70343;51.530;5.050;2023-10-19T12:44:34;10.93;;;2.05;;
80891;SDS011;70343;51.530;5.050;2023-10-19T12:47:09;10.85;;;1.98;;
80891;SDS011;70343;51.530;5.050;2023-10-19T12:49:38;12.45;;;2.95;;
80891;SDS011;70343;51.530;5.050;2023-10-19T12:52:09;10.43;;;2.05;;
80891;SDS011;70343;51.530;5.050;2023-10-19T12:54:35;8.85;;;2.30;;
80891;SDS011;70343;51.530;5.050;2023-10-19T12:57:02;13.43;;;2.28;;
80891;SDS011;70343;51.530;5.050;2023-10-19T12:59:32;9.73;;;2.53;;
80891;SDS011;70343;51.530;5.050;2023-10-19T13:02:03;10.82;;;4.22;;
80891;SDS011;70343;51.530;5.050;2023-10-19T13:05:22;13.35;;;2.55;;
80891;SDS011;70343;51.530;5.050;2023-10-19T13:07:49;13.13;;;2.50;;
80891;SDS011;70343;51.530;5.050;2023-10-19T13:10:15;10.48;;;2.40;;
80891;SDS011;70343;51.530;5.050;2023-10-19T13:12:42;10.30;;;2.92;;
80891;SDS011;70343;51.530;5.050;2023-10-19T13:15:08;7.50;;;2.50;;
80891;SDS011;70343;51.530;5.050;2023-10-19T13:17:41;11.35;;;3.10;;
80891;SDS011;70343;51.530;5.050;2023-10-19T13:20:08;11.90;;;2.75;;
80891;SDS011;70343;51.530;5.050;2023-10-19T13:22:45;7.90;;;4.07;;
80891;SDS011;70343;51.530;5.050;2023-10-19T13:25:12;8.00;;;2.63;;
80891;SDS011;70343;51.530;5.050;2023-10-19T13:27:41;13.23;;;2.70;;
80891;SDS011;70343;51.530;5.050;2023-10-19T13:30:07;11.63;;;2.83;;
80891;SDS011;70343;51.530;5.050;2023-10-19T13:32:40;11.88;;;2.95;;
80891;SDS011;70343;51.530;5.050;2023-10-19T13:35:07;9.75;;;3.20;;
80891;SDS011;70343;51.530;5.050;2023-10-19T13:37:33;7.57;;;2.75;;
80891;SDS011;70343;51.530;5.050;2023-10-19T13:39:58;12.35;;;3.50;;
80891;SDS011;70343;51.530;5.050;2023-10-19T13:42:24;10.23;;;3.28;;
80891;SDS011;70343;51.530;5.050;2023-10-19T13:44:50;9.27;;;3.42;;
80891;SDS011;70343;51.530;5.050;2023-10-19T13:47:15;9.77;;;3.72;;
80891;SDS011;70343;51.530;5.050;2023-10-19T13:49:42;13.60;;;3.83;;
80891;SDS011;70343;51.530;5.050;2023-10-19T13:52:08;11.95;;;4.53;;
80891;SDS011;70343;51.530;5.050;2023-10-19T13:54:35;15.63;;;4.20;;
80891;SDS011;70343;51.530;5.050;2023-10-19T13:57:01;17.13;;;4.78;;
80891;SDS011;70343;51.530;5.050;2023-10-19T13:59:28;10.65;;;4.03;;
80891;SDS011;70343;51.530;5.050;2023-10-19T14:01:54;8.57;;;3.65;;
80891;SDS011;70343;51.530;5.050;2023-10-19T14:04:24;8.50;;;3.95;;
80891;SDS011;70343;51.530;5.050;2023-10-19T14:06:51;12.40;;;3.97;;
80891;SDS011;70343;51.530;5.050;2023-10-19T14:09:19;11.43;;;4.20;;
80891;SDS011;70343;51.530;5.050;2023-10-19T14:11:45;8.00;;;2.97;;
80891;SDS011;70343;51.530;5.050;2023-10-19T14:14:11;15.48;;;3.40;;
80891;SDS011;70343;51.530;5.050;2023-10-19T14:16:37;9.68;;;2.97;;
80891;SDS011;70343;51.530;5.050;2023-10-19T14:19:04;17.75;;;4.43;;
80891;SDS011;70343;51.530;5.050;2023-10-19T14:21:29;13.05;;;4.10;;
80891;SDS011;70343;51.530;5.050;2023-10-19T14:23:56;11.00;;;5.43;;
80891;SDS011;70343;51.530;5.050;2023-10-19T14:26:21;6.85;;;3.42;;
80891;SDS011;70343;51.530;5.050;2023-10-19T14:28:47;13.77;;;6.57;;
80891;SDS011;70343;51.530;5.050;2023-10-19T14:31:14;9.90;;;3.08;;
80891;SDS011;70343;51.530;5.050;2023-10-19T14:33:42;6.05;;;2.50;;
80891;SDS011;70343;51.530;5.050;2023-10-19T14:36:08;8.52;;;2.40;;
80891;SDS011;70343;51.530;5.050;2023-10-19T14:38:34;6.53;;;2.22;;
80891;SDS011;70343;51.530;5.050;2023-10-19T14:41:01;8.45;;;2.03;;
80891;SDS011;70343;51.530;5.050;2023-10-19T14:43:27;4.25;;;1.98;;
80891;SDS011;70343;51.530;5.050;2023-10-19T14:45:54;8.27;;;3.50;;
80891;SDS011;70343;51.530;5.050;2023-10-19T14:48:21;6.32;;;3.13;;
80891;SDS011;70343;51.530;5.050;2023-10-19T14:50:47;5.15;;;2.50;;
80891;SDS011;70343;51.530;5.050;2023-10-19T14:53:16;7.57;;;2.42;;
80891;SDS011;70343;51.530;5.050;2023-10-19T14:55:43;6.30;;;2.38;;
80891;SDS011;70343;51.530;5.050;2023-10-19T14:58:11;5.72;;;2.20;;
80891;SDS011;70343;51.530;5.050;2023-10-19T15:00:37;4.82;;;2.15;;
80891;SDS011;70343;51.530;5.050;2023-10-19T15:03:08;6.55;;;2.30;;
80891;SDS011;70343;51.530;5.050;2023-10-19T15:05:34;3.42;;;1.73;;
80891;SDS011;70343;51.530;5.050;2023-10-19T15:08:01;7.07;;;2.03;;